SVA1254 OEJN-OEGS
Flight info
| Callsign | SVA1254 |
|---|---|
| Flight time | 1h 3m |
| Altitude | 39000 |
| Route | EGREP B417 GAS |
| Aircraft | A20N/M-SDE2E3FGHIRWXY/LB1 |
Departure
| Time | 2026-04-26 20:00 |
|---|---|
| Airport | King Abdulaziz International Airport (OEJN) |
Arrival
| Time | 2026-04-26 21:03 |
|---|---|
| Airport | Prince Naif bin Abdulaziz International Airport (OEGS) |
| Time | Latitude | Longitude | Altitude | Speed | Heading |
|---|---|---|---|---|---|
| 2026-04-26 19:29 | 21.66251 | 39.17098 | 31 ft | 0 kts | 119° |
| 2026-04-26 19:48 | 21.66259 | 39.17082 | 31 ft | 4 kts | 118° |
| 2026-04-26 19:49 | 21.66272 | 39.17056 | 31 ft | 4 kts | 118° |
| 2026-04-26 19:49 | 21.66285 | 39.17030 | 32 ft | 4 kts | 119° |
| 2026-04-26 19:49 | 21.66298 | 39.17007 | 30 ft | 3 kts | 130° |
| 2026-04-26 19:49 | 21.66307 | 39.16999 | 32 ft | 2 kts | 172° |
| 2026-04-26 19:50 | 21.66318 | 39.17000 | 31 ft | 2 kts | 201° |
| 2026-04-26 19:50 | 21.66322 | 39.17001 | 31 ft | 0 kts | 202° |
| 2026-04-26 19:55 | 21.66322 | 39.17002 | 32 ft | 0 kts | 202° |
| 2026-04-26 19:56 | 21.66321 | 39.17000 | 32 ft | 1 kts | 208° |
| 2026-04-26 19:56 | 21.66307 | 39.16980 | 30 ft | 6 kts | 239° |
| 2026-04-26 19:56 | 21.66285 | 39.16930 | 32 ft | 9 kts | 247° |
| 2026-04-26 19:56 | 21.66259 | 39.16858 | 32 ft | 11 kts | 252° |
| 2026-04-26 19:57 | 21.66239 | 39.16795 | 32 ft | 8 kts | 251° |
| 2026-04-26 19:57 | 21.66220 | 39.16737 | 31 ft | 7 kts | 249° |
| 2026-04-26 19:57 | 21.66204 | 39.16679 | 31 ft | 10 kts | 249° |
| 2026-04-26 19:57 | 21.66189 | 39.16640 | 32 ft | 5 kts | 246° |
| 2026-04-26 19:58 | 21.66172 | 39.16597 | 32 ft | 3 kts | 249° |
| 2026-04-26 19:58 | 21.66163 | 39.16572 | 32 ft | 0 kts | 249° |
| 2026-04-26 19:58 | 21.66160 | 39.16564 | 31 ft | 3 kts | 249° |
| 2026-04-26 19:59 | 21.66147 | 39.16524 | 32 ft | 8 kts | 252° |
| 2026-04-26 19:59 | 21.66167 | 39.16467 | 32 ft | 10 kts | 332° |
| 2026-04-26 19:59 | 21.66201 | 39.16454 | 31 ft | 0 kts | 340° |
| 2026-04-26 19:59 | 21.66226 | 39.16444 | 31 ft | 28 kts | 340° |
| 2026-04-26 20:00 | 21.66732 | 39.16243 | 36 ft | 122 kts | 340° |
| 2026-04-26 20:00 | 21.67743 | 39.15843 | 305 ft | 168 kts | 340° |
| 2026-04-26 20:00 | 21.68839 | 39.15423 | 1267 ft | 169 kts | 342° |
| 2026-04-26 20:00 | 21.69964 | 39.15016 | 2301 ft | 174 kts | 342° |
| 2026-04-26 20:01 | 21.71160 | 39.14577 | 2907 ft | 191 kts | 341° |
| 2026-04-26 20:01 | 21.72463 | 39.14079 | 3370 ft | 214 kts | 340° |
| 2026-04-26 20:01 | 21.73945 | 39.13494 | 3819 ft | 239 kts | 339° |
| 2026-04-26 20:01 | 21.75579 | 39.12841 | 4362 ft | 263 kts | 339° |
| 2026-04-26 20:02 | 21.77349 | 39.12131 | 5078 ft | 275 kts | 338° |
| 2026-04-26 20:02 | 21.79145 | 39.11408 | 5659 ft | 277 kts | 339° |
| 2026-04-26 20:02 | 21.80964 | 39.10680 | 5892 ft | 280 kts | 339° |
| 2026-04-26 20:02 | 21.82172 | 39.10197 | 5961 ft | 280 kts | 339° |
| 2026-04-26 20:03 | 21.84615 | 39.09219 | 5989 ft | 280 kts | 339° |
| 2026-04-26 20:03 | 21.86440 | 39.08489 | 5989 ft | 279 kts | 339° |
| 2026-04-26 20:03 | 21.88263 | 39.07758 | 5993 ft | 279 kts | 339° |
| 2026-04-26 20:03 | 21.90078 | 39.07006 | 5994 ft | 279 kts | 335° |
| 2026-04-26 20:04 | 21.91851 | 39.06151 | 5992 ft | 279 kts | 335° |
| 2026-04-26 20:04 | 21.93626 | 39.05302 | 5992 ft | 279 kts | 335° |
| 2026-04-26 20:04 | 21.95402 | 39.04454 | 5991 ft | 279 kts | 335° |
| 2026-04-26 20:04 | 21.97180 | 39.03607 | 5992 ft | 279 kts | 335° |
| 2026-04-26 20:05 | 21.98956 | 39.02759 | 5989 ft | 279 kts | 335° |
| 2026-04-26 20:05 | 22.00732 | 39.01912 | 5994 ft | 279 kts | 335° |
| 2026-04-26 20:05 | 22.02484 | 39.01074 | 5992 ft | 279 kts | 335° |
| 2026-04-26 20:05 | 22.04262 | 39.00223 | 6047 ft | 281 kts | 335° |
| 2026-04-26 20:06 | 22.06060 | 38.99362 | 6510 ft | 284 kts | 334° |
| 2026-04-26 20:06 | 22.07872 | 38.98496 | 7458 ft | 285 kts | 334° |
| 2026-04-26 20:06 | 22.09708 | 38.97618 | 8355 ft | 291 kts | 333° |
| 2026-04-26 20:06 | 22.11584 | 38.96721 | 9243 ft | 297 kts | 333° |
| 2026-04-26 20:07 | 22.13489 | 38.95811 | 10091 ft | 303 kts | 333° |
| 2026-04-26 20:07 | 22.15610 | 38.95221 | 10539 ft | 331 kts | 354° |
| 2026-04-26 20:07 | 22.17979 | 38.95549 | 10838 ft | 359 kts | 17° |
| 2026-04-26 20:07 | 22.20199 | 38.96883 | 11463 ft | 371 kts | 39° |
| 2026-04-26 20:08 | 22.22042 | 38.98851 | 12263 ft | 376 kts | 47° |
| 2026-04-26 20:08 | 22.23807 | 39.00952 | 12672 ft | 379 kts | 47° |
| 2026-04-26 20:08 | 22.25608 | 39.02994 | 12840 ft | 380 kts | 45° |
| 2026-04-26 20:08 | 22.27500 | 39.04990 | 13011 ft | 382 kts | 43° |
| 2026-04-26 20:09 | 22.29247 | 39.07137 | 12888 ft | 380 kts | 56° |
| 2026-04-26 20:09 | 22.30444 | 39.09669 | 12889 ft | 379 kts | 72° |
| 2026-04-26 20:09 | 22.31113 | 39.12422 | 12872 ft | 379 kts | 78° |
| 2026-04-26 20:09 | 22.31714 | 39.15183 | 12889 ft | 377 kts | 78° |
| 2026-04-26 20:10 | 22.32314 | 39.17939 | 12889 ft | 377 kts | 78° |
| 2026-04-26 20:10 | 22.32916 | 39.20700 | 12889 ft | 378 kts | 78° |
| 2026-04-26 20:10 | 22.33519 | 39.23462 | 12890 ft | 377 kts | 78° |
| 2026-04-26 20:10 | 22.34120 | 39.26220 | 12889 ft | 377 kts | 78° |
| 2026-04-26 20:11 | 22.34722 | 39.28982 | 12890 ft | 378 kts | 78° |
| 2026-04-26 20:11 | 22.35324 | 39.31744 | 12900 ft | 377 kts | 78° |
| 2026-04-26 20:11 | 22.35924 | 39.34505 | 12901 ft | 377 kts | 78° |
| 2026-04-26 20:12 | 22.37121 | 39.40016 | 12919 ft | 376 kts | 78° |
| 2026-04-26 20:12 | 22.37719 | 39.42773 | 12919 ft | 377 kts | 78° |
| 2026-04-26 20:12 | 22.38319 | 39.45533 | 12920 ft | 379 kts | 78° |
| 2026-04-26 20:12 | 22.38923 | 39.48321 | 12913 ft | 381 kts | 78° |
| 2026-04-26 20:13 | 22.39524 | 39.51102 | 12939 ft | 380 kts | 78° |
| 2026-04-26 20:13 | 22.40119 | 39.53854 | 12940 ft | 380 kts | 78° |
| 2026-04-26 20:13 | 22.40723 | 39.56653 | 13167 ft | 385 kts | 78° |
| 2026-04-26 20:13 | 22.41332 | 39.59471 | 14052 ft | 385 kts | 78° |
| 2026-04-26 20:14 | 22.41944 | 39.62311 | 14792 ft | 390 kts | 78° |
| 2026-04-26 20:14 | 22.42565 | 39.65189 | 15495 ft | 396 kts | 78° |
| 2026-04-26 20:14 | 22.43195 | 39.68111 | 16205 ft | 402 kts | 78° |
| 2026-04-26 20:14 | 22.43832 | 39.71074 | 16884 ft | 408 kts | 78° |
| 2026-04-26 20:15 | 22.44479 | 39.74079 | 17565 ft | 413 kts | 78° |
| 2026-04-26 20:15 | 22.45133 | 39.77123 | 18251 ft | 419 kts | 78° |
| 2026-04-26 20:15 | 22.45814 | 39.80205 | 18839 ft | 423 kts | 75° |
| 2026-04-26 20:15 | 22.46974 | 39.83136 | 19481 ft | 426 kts | 59° |
| 2026-04-26 20:16 | 22.48788 | 39.85693 | 20001 ft | 431 kts | 43° |
| 2026-04-26 20:16 | 22.51030 | 39.87855 | 20597 ft | 434 kts | 40° |
| 2026-04-26 20:16 | 22.53320 | 39.90021 | 21172 ft | 439 kts | 39° |
| 2026-04-26 20:16 | 22.55636 | 39.92219 | 21738 ft | 444 kts | 40° |
| 2026-04-26 20:17 | 22.57937 | 39.94410 | 22323 ft | 449 kts | 40° |
| 2026-04-26 20:17 | 22.60289 | 39.96655 | 22893 ft | 453 kts | 40° |
| 2026-04-26 20:17 | 22.62669 | 39.98929 | 23441 ft | 459 kts | 40° |
| 2026-04-26 20:17 | 22.64287 | 40.00476 | 23786 ft | 462 kts | 40° |
| 2026-04-26 20:18 | 22.67489 | 40.03542 | 24448 ft | 466 kts | 39° |
| 2026-04-26 20:18 | 22.69936 | 40.05886 | 24888 ft | 471 kts | 39° |
| 2026-04-26 20:18 | 22.72395 | 40.08243 | 25386 ft | 473 kts | 39° |
| 2026-04-26 20:18 | 22.74870 | 40.10616 | 25838 ft | 477 kts | 38° |
| 2026-04-26 20:19 | 22.76522 | 40.12200 | 26130 ft | 479 kts | 38° |
| 2026-04-26 20:19 | 22.79033 | 40.14610 | 26556 ft | 483 kts | 38° |
| 2026-04-26 20:19 | 22.81553 | 40.17029 | 26986 ft | 486 kts | 38° |
| 2026-04-26 20:19 | 22.84093 | 40.19469 | 27396 ft | 489 kts | 38° |
| 2026-04-26 20:20 | 22.86656 | 40.21932 | 27774 ft | 493 kts | 37° |
| 2026-04-26 20:20 | 22.89228 | 40.24405 | 28180 ft | 496 kts | 37° |
| 2026-04-26 20:20 | 22.91797 | 40.26876 | 28470 ft | 501 kts | 37° |
| 2026-04-26 20:20 | 22.94409 | 40.29390 | 28857 ft | 503 kts | 37° |
| 2026-04-26 20:21 | 22.97036 | 40.31920 | 29221 ft | 507 kts | 36° |
| 2026-04-26 20:21 | 22.99682 | 40.34468 | 29555 ft | 510 kts | 36° |
| 2026-04-26 20:21 | 23.02347 | 40.37036 | 29888 ft | 513 kts | 36° |
| 2026-04-26 20:21 | 23.05021 | 40.39615 | 30208 ft | 516 kts | 36° |
| 2026-04-26 20:22 | 23.07715 | 40.42217 | 30516 ft | 518 kts | 36° |
| 2026-04-26 20:22 | 23.10413 | 40.44824 | 30783 ft | 522 kts | 36° |
| 2026-04-26 20:22 | 23.13137 | 40.47455 | 31046 ft | 525 kts | 36° |
| 2026-04-26 20:22 | 23.15859 | 40.50087 | 31493 ft | 523 kts | 36° |
| 2026-04-26 20:23 | 23.18574 | 40.52714 | 31946 ft | 522 kts | 36° |
| 2026-04-26 20:23 | 23.21289 | 40.55340 | 32354 ft | 521 kts | 36° |
| 2026-04-26 20:23 | 23.23999 | 40.57962 | 32739 ft | 521 kts | 36° |
| 2026-04-26 20:23 | 23.26709 | 40.60586 | 33152 ft | 520 kts | 36° |
| 2026-04-26 20:24 | 23.29308 | 40.63348 | 33483 ft | 526 kts | 41° |
| 2026-04-26 20:24 | 23.31841 | 40.66231 | 33811 ft | 526 kts | 40° |
| 2026-04-26 20:24 | 23.34370 | 40.69103 | 34179 ft | 525 kts | 40° |
| 2026-04-26 20:24 | 23.36858 | 40.71928 | 34531 ft | 523 kts | 40° |
| 2026-04-26 20:25 | 23.39405 | 40.74820 | 34871 ft | 522 kts | 40° |
| 2026-04-26 20:25 | 23.41063 | 40.76703 | 35085 ft | 521 kts | 40° |
| 2026-04-26 20:25 | 23.44407 | 40.80504 | 35513 ft | 519 kts | 40° |
| 2026-04-26 20:25 | 23.46874 | 40.83311 | 35821 ft | 519 kts | 40° |
| 2026-04-26 20:26 | 23.49364 | 40.86145 | 36120 ft | 518 kts | 40° |
| 2026-04-26 20:26 | 23.51856 | 40.88983 | 36445 ft | 517 kts | 40° |
| 2026-04-26 20:26 | 23.54336 | 40.91809 | 36756 ft | 515 kts | 41° |
| 2026-04-26 20:26 | 23.56803 | 40.94623 | 37128 ft | 513 kts | 41° |
| 2026-04-26 20:27 | 23.59262 | 40.97429 | 37452 ft | 512 kts | 41° |
| 2026-04-26 20:27 | 23.61731 | 41.00247 | 37731 ft | 511 kts | 41° |
| 2026-04-26 20:27 | 23.64179 | 41.03043 | 38030 ft | 511 kts | 40° |
| 2026-04-26 20:27 | 23.66636 | 41.05852 | 38266 ft | 511 kts | 40° |
| 2026-04-26 20:28 | 23.69089 | 41.08657 | 38526 ft | 510 kts | 40° |
| 2026-04-26 20:28 | 23.71532 | 41.11453 | 38783 ft | 509 kts | 40° |
| 2026-04-26 20:28 | 23.73981 | 41.14256 | 38969 ft | 509 kts | 41° |
| 2026-04-26 20:29 | 23.78847 | 41.19833 | 39015 ft | 506 kts | 41° |
| 2026-04-26 20:29 | 23.83686 | 41.25383 | 39003 ft | 509 kts | 41° |
| 2026-04-26 20:30 | 23.88569 | 41.30991 | 39000 ft | 508 kts | 41° |
| 2026-04-26 20:30 | 23.93443 | 41.36597 | 39000 ft | 508 kts | 41° |
| 2026-04-26 20:31 | 23.98311 | 41.42203 | 38996 ft | 508 kts | 41° |
| 2026-04-26 20:31 | 24.03180 | 41.47815 | 38996 ft | 509 kts | 41° |
| 2026-04-26 20:32 | 24.08050 | 41.53436 | 38999 ft | 509 kts | 41° |
| 2026-04-26 20:32 | 24.12924 | 41.59068 | 39011 ft | 509 kts | 41° |
| 2026-04-26 20:33 | 24.17762 | 41.64665 | 39002 ft | 509 kts | 40° |
| 2026-04-26 20:33 | 24.22626 | 41.70299 | 39004 ft | 509 kts | 40° |
| 2026-04-26 20:34 | 24.27492 | 41.75941 | 39004 ft | 509 kts | 41° |
| 2026-04-26 20:34 | 24.32352 | 41.81580 | 39000 ft | 508 kts | 40° |
| 2026-04-26 20:35 | 24.37533 | 41.86759 | 38999 ft | 503 kts | 35° |
| 2026-04-26 20:35 | 24.42775 | 41.91856 | 38994 ft | 503 kts | 35° |
| 2026-04-26 20:36 | 24.47983 | 41.96932 | 38991 ft | 503 kts | 35° |
| 2026-04-26 20:36 | 24.53221 | 42.02042 | 38981 ft | 503 kts | 35° |
| 2026-04-26 20:37 | 24.58465 | 42.07163 | 38974 ft | 503 kts | 35° |
| 2026-04-26 20:37 | 24.63657 | 42.12237 | 38975 ft | 503 kts | 35° |
| 2026-04-26 20:38 | 24.68882 | 42.17350 | 38983 ft | 503 kts | 34° |
| 2026-04-26 20:38 | 24.74130 | 42.22492 | 38957 ft | 504 kts | 34° |
| 2026-04-26 20:39 | 24.79366 | 42.27627 | 38954 ft | 504 kts | 34° |
| 2026-04-26 20:39 | 24.84609 | 42.32777 | 38960 ft | 505 kts | 34° |
| 2026-04-26 20:40 | 24.89858 | 42.37938 | 38960 ft | 506 kts | 34° |
| 2026-04-26 20:40 | 24.95077 | 42.43078 | 38959 ft | 507 kts | 34° |
| 2026-04-26 20:41 | 25.00339 | 42.48268 | 38962 ft | 507 kts | 34° |
| 2026-04-26 20:41 | 25.05611 | 42.53474 | 38949 ft | 508 kts | 34° |
| 2026-04-26 20:41 | 25.08234 | 42.56069 | 38715 ft | 507 kts | 34° |
| 2026-04-26 20:42 | 25.10867 | 42.58672 | 38049 ft | 509 kts | 34° |
| 2026-04-26 20:42 | 25.13513 | 42.61287 | 37141 ft | 514 kts | 34° |
| 2026-04-26 20:42 | 25.16194 | 42.63934 | 36147 ft | 520 kts | 34° |
| 2026-04-26 20:42 | 25.18907 | 42.66619 | 35170 ft | 526 kts | 34° |
| 2026-04-26 20:43 | 25.21657 | 42.69342 | 34161 ft | 534 kts | 34° |
| 2026-04-26 20:43 | 25.24392 | 42.72056 | 32988 ft | 534 kts | 35° |
| 2026-04-26 20:43 | 25.27145 | 42.74793 | 31965 ft | 529 kts | 36° |
| 2026-04-26 20:43 | 25.29854 | 42.77490 | 31253 ft | 518 kts | 36° |
| 2026-04-26 20:44 | 25.32496 | 42.80123 | 30701 ft | 503 kts | 36° |
| 2026-04-26 20:44 | 25.35065 | 42.82681 | 30115 ft | 491 kts | 36° |
| 2026-04-26 20:44 | 25.37592 | 42.85191 | 29518 ft | 485 kts | 37° |
| 2026-04-26 20:44 | 25.40093 | 42.87673 | 28938 ft | 480 kts | 37° |
| 2026-04-26 20:45 | 25.42566 | 42.90131 | 28375 ft | 476 kts | 37° |
| 2026-04-26 20:45 | 25.45016 | 42.92570 | 27819 ft | 472 kts | 37° |
| 2026-04-26 20:45 | 25.47442 | 42.94988 | 27271 ft | 468 kts | 38° |
| 2026-04-26 20:45 | 25.49852 | 42.97391 | 26720 ft | 464 kts | 38° |
| 2026-04-26 20:46 | 25.52244 | 42.99779 | 26166 ft | 461 kts | 38° |
| 2026-04-26 20:46 | 25.54623 | 43.02153 | 25612 ft | 459 kts | 38° |
| 2026-04-26 20:46 | 25.56987 | 43.04512 | 25046 ft | 457 kts | 38° |
| 2026-04-26 20:46 | 25.59336 | 43.06858 | 24531 ft | 454 kts | 38° |
| 2026-04-26 20:47 | 25.61678 | 43.09197 | 23988 ft | 452 kts | 39° |
| 2026-04-26 20:47 | 25.63225 | 43.10744 | 23596 ft | 451 kts | 39° |
| 2026-04-26 20:47 | 25.66321 | 43.13842 | 22850 ft | 446 kts | 39° |
| 2026-04-26 20:47 | 25.68611 | 43.16136 | 22320 ft | 441 kts | 39° |
| 2026-04-26 20:48 | 25.70854 | 43.18383 | 21772 ft | 437 kts | 39° |
| 2026-04-26 20:48 | 25.73319 | 43.20376 | 21038 ft | 431 kts | 25° |
| 2026-04-26 20:48 | 25.75950 | 43.21879 | 20237 ft | 431 kts | 21° |
| 2026-04-26 20:48 | 25.78705 | 43.23322 | 19410 ft | 433 kts | 21° |
| 2026-04-26 20:49 | 25.81384 | 43.24736 | 18773 ft | 430 kts | 22° |
| 2026-04-26 20:49 | 25.84053 | 43.26189 | 18204 ft | 424 kts | 24° |
| 2026-04-26 20:49 | 25.86676 | 43.27650 | 17493 ft | 419 kts | 24° |
| 2026-04-26 20:49 | 25.89265 | 43.29112 | 16718 ft | 417 kts | 24° |
| 2026-04-26 20:50 | 25.91851 | 43.30582 | 15955 ft | 415 kts | 24° |
| 2026-04-26 20:50 | 25.94414 | 43.32041 | 15259 ft | 411 kts | 24° |
| 2026-04-26 20:50 | 25.96956 | 43.33488 | 14583 ft | 408 kts | 24° |
| 2026-04-26 20:50 | 25.99456 | 43.34912 | 13689 ft | 402 kts | 24° |
| 2026-04-26 20:51 | 26.01933 | 43.36322 | 12671 ft | 397 kts | 24° |
| 2026-04-26 20:51 | 26.04371 | 43.37711 | 11797 ft | 390 kts | 25° |
| 2026-04-26 20:51 | 26.06736 | 43.39061 | 11336 ft | 372 kts | 25° |
| 2026-04-26 20:51 | 26.09016 | 43.40361 | 10829 ft | 367 kts | 25° |
| 2026-04-26 20:52 | 26.11267 | 43.41645 | 10424 ft | 360 kts | 25° |
| 2026-04-26 20:52 | 26.13421 | 43.42876 | 10256 ft | 343 kts | 25° |
| 2026-04-26 20:52 | 26.15486 | 43.44057 | 10032 ft | 324 kts | 25° |
| 2026-04-26 20:52 | 26.17463 | 43.45187 | 9530 ft | 317 kts | 25° |
| 2026-04-26 20:53 | 26.19400 | 43.46294 | 9266 ft | 309 kts | 25° |
| 2026-04-26 20:53 | 26.21322 | 43.47392 | 9173 ft | 309 kts | 25° |
| 2026-04-26 20:53 | 26.23208 | 43.48472 | 9088 ft | 299 kts | 26° |
| 2026-04-26 20:53 | 26.25011 | 43.49505 | 8935 ft | 283 kts | 25° |
| 2026-04-26 20:54 | 26.26707 | 43.50480 | 8791 ft | 266 kts | 25° |
| 2026-04-26 20:54 | 26.28333 | 43.51414 | 8536 ft | 261 kts | 25° |
| 2026-04-26 20:54 | 26.29939 | 43.52332 | 8230 ft | 258 kts | 25° |
| 2026-04-26 20:54 | 26.31533 | 43.53244 | 7877 ft | 257 kts | 25° |
| 2026-04-26 20:55 | 26.33121 | 43.54153 | 7532 ft | 255 kts | 25° |
| 2026-04-26 20:55 | 26.34690 | 43.55052 | 7224 ft | 252 kts | 26° |
| 2026-04-26 20:55 | 26.36246 | 43.55943 | 6879 ft | 251 kts | 26° |
| 2026-04-26 20:55 | 26.37794 | 43.56831 | 6559 ft | 249 kts | 26° |
| 2026-04-26 20:56 | 26.39330 | 43.57711 | 6226 ft | 247 kts | 26° |
| 2026-04-26 20:56 | 26.40822 | 43.58568 | 5992 ft | 240 kts | 26° |
| 2026-04-26 20:56 | 26.42262 | 43.59395 | 5856 ft | 225 kts | 26° |
| 2026-04-26 20:56 | 26.43618 | 43.60174 | 5629 ft | 216 kts | 26° |
| 2026-04-26 20:57 | 26.44951 | 43.60941 | 5374 ft | 214 kts | 26° |
| 2026-04-26 20:57 | 26.46267 | 43.61697 | 5198 ft | 209 kts | 26° |
| 2026-04-26 20:57 | 26.47543 | 43.62430 | 5033 ft | 204 kts | 26° |
| 2026-04-26 20:57 | 26.48678 | 43.63312 | 4995 ft | 202 kts | 51° |
| 2026-04-26 20:58 | 26.49245 | 43.64759 | 4993 ft | 205 kts | 88° |
| 2026-04-26 20:58 | 26.49094 | 43.65779 | 4995 ft | 205 kts | 119° |
| 2026-04-26 20:58 | 26.47791 | 43.67293 | 4994 ft | 204 kts | 149° |
| 2026-04-26 20:58 | 26.46567 | 43.68079 | 4999 ft | 200 kts | 154° |
| 2026-04-26 20:59 | 26.45412 | 43.68737 | 4984 ft | 173 kts | 154° |
| 2026-04-26 20:59 | 26.44398 | 43.69321 | 4836 ft | 158 kts | 155° |
| 2026-04-26 20:59 | 26.43434 | 43.69872 | 4659 ft | 156 kts | 154° |
| 2026-04-26 20:59 | 26.42486 | 43.70418 | 4479 ft | 147 kts | 153° |
| 2026-04-26 21:00 | 26.41614 | 43.70919 | 4285 ft | 136 kts | 152° |
| 2026-04-26 21:00 | 26.40762 | 43.71409 | 4118 ft | 139 kts | 152° |
| 2026-04-26 21:00 | 26.39907 | 43.71900 | 3941 ft | 136 kts | 150° |
| 2026-04-26 21:00 | 26.39070 | 43.72380 | 3776 ft | 133 kts | 151° |
| 2026-04-26 21:01 | 26.38274 | 43.72836 | 3609 ft | 129 kts | 149° |
| 2026-04-26 21:01 | 26.37458 | 43.73305 | 3450 ft | 131 kts | 149° |
| 2026-04-26 21:01 | 26.36649 | 43.73769 | 3290 ft | 130 kts | 148° |
| 2026-04-26 21:01 | 26.35859 | 43.74221 | 3127 ft | 128 kts | 148° |
| 2026-04-26 21:02 | 26.35060 | 43.74680 | 2944 ft | 129 kts | 148° |
| 2026-04-26 21:02 | 26.34258 | 43.75141 | 2784 ft | 130 kts | 150° |
| 2026-04-26 21:02 | 26.33451 | 43.75603 | 2600 ft | 130 kts | 150° |
| 2026-04-26 21:02 | 26.32648 | 43.76063 | 2427 ft | 130 kts | 150° |
| 2026-04-26 21:03 | 26.31838 | 43.76529 | 2248 ft | 131 kts | 150° |
| 2026-04-26 21:03 | 26.31299 | 43.76839 | 2152 ft | 131 kts | 150° |
| 2026-04-26 21:03 | 26.30554 | 43.77265 | 2133 ft | 99 kts | 153° |
| 2026-04-26 21:03 | 26.30126 | 43.77508 | 2132 ft | 40 kts | 152° |
| 2026-04-26 21:04 | 26.29909 | 43.77632 | 2132 ft | 35 kts | 155° |
| 2026-04-26 21:04 | 26.29729 | 43.77708 | 2133 ft | 24 kts | 167° |
| 2026-04-26 21:04 | 26.29604 | 43.77730 | 2136 ft | 17 kts | 181° |
| 2026-04-26 21:04 | 26.29505 | 43.77725 | 2137 ft | 12 kts | 183° |
| 2026-04-26 21:05 | 26.29429 | 43.77680 | 2136 ft | 15 kts | 249° |
| 2026-04-26 21:05 | 26.29456 | 43.77633 | 2135 ft | 7 kts | 331° |
| 2026-04-26 21:05 | 26.29516 | 43.77597 | 2135 ft | 12 kts | 332° |
| 2026-04-26 21:05 | 26.29595 | 43.77553 | 2135 ft | 12 kts | 336° |
| 2026-04-26 21:06 | 26.29677 | 43.77507 | 2136 ft | 13 kts | 329° |
| 2026-04-26 21:06 | 26.29763 | 43.77455 | 2134 ft | 11 kts | 333° |
| 2026-04-26 21:06 | 26.29842 | 43.77411 | 2154 ft | 13 kts | 334° |
| 2026-04-26 21:06 | 26.29918 | 43.77369 | 2134 ft | 12 kts | 332° |
| 2026-04-26 21:07 | 26.30003 | 43.77320 | 2134 ft | 16 kts | 333° |
| 2026-04-26 21:07 | 26.30107 | 43.77261 | 2133 ft | 18 kts | 333° |
| 2026-04-26 21:07 | 26.30195 | 43.77210 | 2134 ft | 14 kts | 328° |
| 2026-04-26 21:07 | 26.30246 | 43.77113 | 2136 ft | 16 kts | 294° |
| 2026-04-26 21:08 | 26.30322 | 43.77067 | 2135 ft | 12 kts | 358° |
| 2026-04-26 21:08 | 26.30406 | 43.77090 | 2136 ft | 7 kts | 338° |
| 2026-04-26 21:08 | 26.30409 | 43.77056 | 2136 ft | 6 kts | 240° |
| 2026-04-26 21:08 | 26.30389 | 43.77016 | 2136 ft | 1 kts | 242° |
| 2026-04-26 21:09 | 26.30388 | 43.77014 | 2136 ft | 0 kts | 242° |